sensor_id;sensor_type;location;lat;lon;timestamp;pressure;altitude;pressure_sealevel;temperature;humidity
46682;BME280;34101;53.430;-2.224;2022-09-02T00:00:50;157120.22;;;18.67;74.47
46682;BME280;34101;53.430;-2.224;2022-09-02T00:03:19;157102.68;;;18.60;74.90
46682;BME280;34101;53.430;-2.224;2022-09-02T00:05:47;157085.46;;;18.53;75.24
46682;BME280;34101;53.430;-2.224;2022-09-02T00:08:14;157074.82;;;18.49;75.38
46682;BME280;34101;53.430;-2.224;2022-09-02T00:10:44;157065.88;;;18.45;75.78
46682;BME280;34101;53.430;-2.224;2022-09-02T00:13:14;157063.12;;;18.44;75.96
46682;BME280;34101;53.430;-2.224;2022-09-02T00:15:42;157060.12;;;18.43;76.05
46682;BME280;34101;53.430;-2.224;2022-09-02T00:18:10;157043.96;;;18.36;76.44
46682;BME280;34101;53.430;-2.224;2022-09-02T00:20:38;157033.24;;;18.32;76.61
46682;BME280;34101;53.430;-2.224;2022-09-02T00:23:06;157036.24;;;18.33;76.62
46682;BME280;34101;53.430;-2.224;2022-09-02T00:25:33;157039.16;;;18.34;76.69
46682;BME280;34101;53.430;-2.224;2022-09-02T00:28:01;157039.73;;;18.35;76.58
46682;BME280;34101;53.430;-2.224;2022-09-02T00:30:28;157048.02;;;18.38;76.61
46682;BME280;34101;53.430;-2.224;2022-09-02T00:32:55;157045.74;;;18.37;76.52
46682;BME280;34101;53.430;-2.224;2022-09-02T00:35:23;157045.90;;;18.37;76.79
46682;BME280;34101;53.430;-2.224;2022-09-02T00:37:51;157039.25;;;18.34;76.76
46682;BME280;34101;53.430;-2.224;2022-09-02T00:40:18;157027.23;;;18.30;76.91
46682;BME280;34101;53.430;-2.224;2022-09-02T00:42:46;157025.12;;;18.29;77.20
46682;BME280;34101;53.430;-2.224;2022-09-02T00:45:13;157032.18;;;18.32;76.99
46682;BME280;34101;53.430;-2.224;2022-09-02T00:47:41;157037.95;;;18.34;77.00
46682;BME280;34101;53.430;-2.224;2022-09-02T00:50:11;157045.01;;;18.37;76.64
46682;BME280;34101;53.430;-2.224;2022-09-02T00:52:42;157053.46;;;18.40;76.68
46682;BME280;34101;53.430;-2.224;2022-09-02T00:55:15;157068.00;;;18.46;76.42
46682;BME280;34101;53.430;-2.224;2022-09-02T00:57:46;157076.52;;;18.49;76.20
46682;BME280;34101;53.430;-2.224;2022-09-02T01:00:16;157080.66;;;18.51;76.08
46682;BME280;34101;53.430;-2.224;2022-09-02T01:02:48;157084.24;;;18.52;76.22
46682;BME280;34101;53.430;-2.224;2022-09-02T01:05:18;157093.90;;;18.56;75.82
46682;BME280;34101;53.430;-2.224;2022-09-02T01:07:47;157089.52;;;18.55;75.82
46682;BME280;34101;53.430;-2.224;2022-09-02T01:10:17;157087.49;;;18.54;76.13
46682;BME280;34101;53.430;-2.224;2022-09-02T01:12:45;157092.12;;;18.56;75.61
46682;BME280;34101;53.430;-2.224;2022-09-02T01:15:14;157100.24;;;18.59;75.61
46682;BME280;34101;53.430;-2.224;2022-09-02T01:17:45;157105.92;;;18.61;75.17
46682;BME280;34101;53.430;-2.224;2022-09-02T01:20:16;157095.20;;;18.57;75.12
46682;BME280;34101;53.430;-2.224;2022-09-02T01:22:44;157096.18;;;18.57;75.18
46682;BME280;34101;53.430;-2.224;2022-09-02T01:25:13;157095.93;;;18.57;75.19
46682;BME280;34101;53.430;-2.224;2022-09-02T01:27:42;157087.32;;;18.54;75.34
46682;BME280;34101;53.430;-2.224;2022-09-02T01:30:11;157084.24;;;18.52;75.58
46682;BME280;34101;53.430;-2.224;2022-09-02T01:32:40;157076.52;;;18.49;75.58
46682;BME280;34101;53.430;-2.224;2022-09-02T01:35:08;157075.55;;;18.49;75.67
46682;BME280;34101;53.430;-2.224;2022-09-02T01:37:34;157054.03;;;18.40;75.73
46682;BME280;34101;53.430;-2.224;2022-09-02T01:40:02;157050.62;;;18.39;75.69
46682;BME280;34101;53.430;-2.224;2022-09-02T01:42:29;157052.89;;;18.40;75.82
46682;BME280;34101;53.430;-2.224;2022-09-02T01:44:57;157057.03;;;18.42;75.71
46682;BME280;34101;53.430;-2.224;2022-09-02T01:47:26;157064.42;;;18.45;75.61
46682;BME280;34101;53.430;-2.224;2022-09-02T01:49:53;157054.92;;;18.41;75.75
46682;BME280;34101;53.430;-2.224;2022-09-02T01:52:23;157053.86;;;18.40;75.79
46682;BME280;34101;53.430;-2.224;2022-09-02T01:54:50;157059.55;;;18.43;75.68
46682;BME280;34101;53.430;-2.224;2022-09-02T01:57:18;157059.14;;;18.42;75.85
46682;BME280;34101;53.430;-2.224;2022-09-02T01:59:46;157062.88;;;18.44;75.80
46682;BME280;34101;53.430;-2.224;2022-09-02T02:02:13;157064.02;;;18.44;75.74
46682;BME280;34101;53.430;-2.224;2022-09-02T02:04:41;157045.74;;;18.37;75.80
46682;BME280;34101;53.430;-2.224;2022-09-02T02:07:08;157042.58;;;18.36;76.06
46682;BME280;34101;53.430;-2.224;2022-09-02T02:09:36;157037.78;;;18.34;76.13
46682;BME280;34101;53.430;-2.224;2022-09-02T02:12:04;157041.76;;;18.35;76.37
46682;BME280;34101;53.430;-2.224;2022-09-02T02:14:31;157050.70;;;18.39;75.99
46682;BME280;34101;53.430;-2.224;2022-09-02T02:16:59;157043.39;;;18.36;76.02
46682;BME280;34101;53.430;-2.224;2022-09-02T02:19:26;157047.61;;;18.38;75.91
46682;BME280;34101;53.430;-2.224;2022-09-02T02:21:54;157053.30;;;18.40;75.60
46682;BME280;34101;53.430;-2.224;2022-09-02T02:24:21;157058.66;;;18.42;75.61
46682;BME280;34101;53.430;-2.224;2022-09-02T02:26:48;157070.19;;;18.47;75.62
46682;BME280;34101;53.430;-2.224;2022-09-02T02:29:16;157068.56;;;18.46;75.59
46682;BME280;34101;53.430;-2.224;2022-09-02T02:31:43;157069.29;;;18.46;75.47
46682;BME280;34101;53.430;-2.224;2022-09-02T02:34:11;157062.47;;;18.44;75.64
46682;BME280;34101;53.430;-2.224;2022-09-02T02:36:39;157070.35;;;18.47;75.75
46682;BME280;34101;53.430;-2.224;2022-09-02T02:39:08;157065.96;;;18.45;75.53
46682;BME280;34101;53.430;-2.224;2022-09-02T02:41:37;157064.67;;;18.45;75.55
46682;BME280;34101;53.430;-2.224;2022-09-02T02:44:05;157067.18;;;18.46;75.51
46682;BME280;34101;53.430;-2.224;2022-09-02T02:46:32;157051.02;;;18.39;75.97
46682;BME280;34101;53.430;-2.224;2022-09-02T02:49:00;157049.48;;;18.39;75.95
46682;BME280;34101;53.430;-2.224;2022-09-02T02:51:27;157038.68;;;18.34;76.12
46682;BME280;34101;53.430;-2.224;2022-09-02T02:53:54;157028.28;;;18.30;76.24
46682;BME280;34101;53.430;-2.224;2022-09-02T02:56:22;157019.11;;;18.26;76.42
46682;BME280;34101;53.430;-2.224;2022-09-02T02:58:50;157005.87;;;18.21;76.77
46682;BME280;34101;53.430;-2.224;2022-09-02T03:01:17;156994.01;;;18.16;77.02
46682;BME280;34101;53.430;-2.224;2022-09-02T03:03:45;156976.64;;;18.09;77.38
46682;BME280;34101;53.430;-2.224;2022-09-02T03:06:12;156958.20;;;18.02;77.83
46682;BME280;34101;53.430;-2.224;2022-09-02T03:08:40;156936.93;;;17.93;78.15
46682;BME280;34101;53.430;-2.224;2022-09-02T03:11:08;156921.91;;;17.87;78.42
46682;BME280;34101;53.430;-2.224;2022-09-02T03:13:35;156908.68;;;17.82;78.82
46682;BME280;34101;53.430;-2.224;2022-09-02T03:16:04;156899.50;;;17.78;79.12
46682;BME280;34101;53.430;-2.224;2022-09-02T03:18:30;156890.90;;;17.75;79.11
46682;BME280;34101;53.430;-2.224;2022-09-02T03:20:58;156885.70;;;17.73;79.43
46682;BME280;34101;53.430;-2.224;2022-09-02T03:23:25;156889.60;;;17.74;79.11
46682;BME280;34101;53.430;-2.224;2022-09-02T03:25:53;156892.44;;;17.76;79.29
46682;BME280;34101;53.430;-2.224;2022-09-02T03:28:20;156899.02;;;17.78;79.14
46682;BME280;34101;53.430;-2.224;2022-09-02T03:30:48;156906.08;;;17.81;79.09
46682;BME280;34101;53.430;-2.224;2022-09-02T03:33:15;156902.43;;;17.80;79.18
46682;BME280;34101;53.430;-2.224;2022-09-02T03:35:44;156901.94;;;17.79;79.08
46682;BME280;34101;53.430;-2.224;2022-09-02T03:38:12;156899.26;;;17.78;79.23
46682;BME280;34101;53.430;-2.224;2022-09-02T03:40:39;156896.34;;;17.77;79.16
46682;BME280;34101;53.430;-2.224;2022-09-02T03:43:06;156887.24;;;17.73;79.05
46682;BME280;34101;53.430;-2.224;2022-09-02T03:45:34;156871.01;;;17.67;79.31
46682;BME280;34101;53.430;-2.224;2022-09-02T03:48:02;156865.57;;;17.65;79.62
46682;BME280;34101;53.430;-2.224;2022-09-02T03:50:32;156858.67;;;17.62;79.69
46682;BME280;34101;53.430;-2.224;2022-09-02T03:52:59;156858.02;;;17.62;79.79
46682;BME280;34101;53.430;-2.224;2022-09-02T03:55:27;156856.40;;;17.61;79.79
46682;BME280;34101;53.430;-2.224;2022-09-02T03:57:55;156854.20;;;17.60;79.81
46682;BME280;34101;53.430;-2.224;2022-09-02T04:00:26;156841.54;;;17.55;80.32
46682;BME280;34101;53.430;-2.224;2022-09-02T04:02:54;156838.46;;;17.54;80.52
46682;BME280;34101;53.430;-2.224;2022-09-02T04:05:22;156839.83;;;17.54;80.20
46682;BME280;34101;53.430;-2.224;2022-09-02T04:07:50;156843.49;;;17.56;80.00
46682;BME280;34101;53.430;-2.224;2022-09-02T04:10:18;156846.25;;;17.57;80.03
46682;BME280;34101;53.430;-2.224;2022-09-02T04:12:47;156848.28;;;17.58;79.92
46682;BME280;34101;53.430;-2.224;2022-09-02T04:15:14;156852.66;;;17.60;79.84
46682;BME280;34101;53.430;-2.224;2022-09-02T04:17:42;156860.21;;;17.63;79.64
46682;BME280;34101;53.430;-2.224;2022-09-02T04:20:11;156864.03;;;17.64;79.68
46682;BME280;34101;53.430;-2.224;2022-09-02T04:22:39;156870.44;;;17.67;79.60
46682;BME280;34101;53.430;-2.224;2022-09-02T04:25:08;156867.27;;;17.65;79.51
46682;BME280;34101;53.430;-2.224;2022-09-02T04:27:36;156868.17;;;17.66;79.44
46682;BME280;34101;53.430;-2.224;2022-09-02T04:30:05;156857.69;;;17.62;79.51
46682;BME280;34101;53.430;-2.224;2022-09-02T04:32:33;156842.27;;;17.55;79.80
46682;BME280;34101;53.430;-2.224;2022-09-02T04:35:00;156818.97;;;17.46;80.37
46682;BME280;34101;53.430;-2.224;2022-09-02T04:37:28;156808.50;;;17.42;80.86
46682;BME280;34101;53.430;-2.224;2022-09-02T04:39:55;156803.06;;;17.40;80.91
46682;BME280;34101;53.430;-2.224;2022-09-02T04:42:24;156796.33;;;17.37;81.11
46682;BME280;34101;53.430;-2.224;2022-09-02T04:44:51;156792.67;;;17.36;81.13
46682;BME280;34101;53.430;-2.224;2022-09-02T04:47:18;156794.05;;;17.36;81.09
46682;BME280;34101;53.430;-2.224;2022-09-02T04:49:46;156793.89;;;17.36;81.16
46682;BME280;34101;53.430;-2.224;2022-09-02T04:52:13;156795.52;;;17.37;81.38
46682;BME280;34101;53.430;-2.224;2022-09-02T04:54:40;156802.01;;;17.39;81.14
46682;BME280;34101;53.430;-2.224;2022-09-02T04:57:08;156801.93;;;17.39;81.27
46682;BME280;34101;53.430;-2.224;2022-09-02T04:59:36;156792.92;;;17.36;81.45
46682;BME280;34101;53.430;-2.224;2022-09-02T05:02:04;156788.21;;;17.34;81.53
46682;BME280;34101;53.430;-2.224;2022-09-02T05:04:31;156794.38;;;17.36;81.49
46682;BME280;34101;53.430;-2.224;2022-09-02T05:07:00;156797.63;;;17.38;81.57
46682;BME280;34101;53.430;-2.224;2022-09-02T05:09:28;156801.12;;;17.39;81.39
46682;BME280;34101;53.430;-2.224;2022-09-02T05:11:56;156801.44;;;17.39;81.63
46682;BME280;34101;53.430;-2.224;2022-09-02T05:14:24;156801.20;;;17.39;81.55
46682;BME280;34101;53.430;-2.224;2022-09-02T05:16:51;156805.74;;;17.41;81.19
46682;BME280;34101;53.430;-2.224;2022-09-02T05:19:20;156814.75;;;17.44;81.45
46682;BME280;34101;53.430;-2.224;2022-09-02T05:21:49;156819.22;;;17.46;80.93
46682;BME280;34101;53.430;-2.224;2022-09-02T05:24:17;156822.63;;;17.48;81.34
46682;BME280;34101;53.430;-2.224;2022-09-02T05:26:45;156821.98;;;17.47;81.11
46682;BME280;34101;53.430;-2.224;2022-09-02T05:29:12;156809.23;;;17.42;81.15
46682;BME280;34101;53.430;-2.224;2022-09-02T05:31:40;156801.52;;;17.39;81.47
46682;BME280;34101;53.430;-2.224;2022-09-02T05:34:07;156790.08;;;17.34;81.81
46682;BME280;34101;53.430;-2.224;2022-09-02T05:36:34;156782.93;;;17.32;82.01
46682;BME280;34101;53.430;-2.224;2022-09-02T05:39:02;156781.96;;;17.31;81.88
46682;BME280;34101;53.430;-2.224;2022-09-02T05:41:30;156780.42;;;17.31;81.87
46682;BME280;34101;53.430;-2.224;2022-09-02T05:44:00;156785.29;;;17.33;81.89
46682;BME280;34101;53.430;-2.224;2022-09-02T05:46:28;156790.97;;;17.35;81.73
46682;BME280;34101;53.430;-2.224;2022-09-02T05:48:55;156797.71;;;17.38;81.68
46682;BME280;34101;53.430;-2.224;2022-09-02T05:51:24;156806.80;;;17.41;81.51
46682;BME280;34101;53.430;-2.224;2022-09-02T05:53:52;156809.80;;;17.42;81.45
46682;BME280;34101;53.430;-2.224;2022-09-02T05:56:19;156814.91;;;17.44;81.50
46682;BME280;34101;53.430;-2.224;2022-09-02T05:58:46;156812.40;;;17.43;81.79
46682;BME280;34101;53.430;-2.224;2022-09-02T06:01:17;156815.32;;;17.45;81.98
46682;BME280;34101;53.430;-2.224;2022-09-02T06:03:45;156820.03;;;17.46;82.10
46682;BME280;34101;53.430;-2.224;2022-09-02T06:06:12;156832.61;;;17.52;81.97
46682;BME280;34101;53.430;-2.224;2022-09-02T06:08:40;156841.30;;;17.55;82.13
46682;BME280;34101;53.430;-2.224;2022-09-02T06:11:09;156848.44;;;17.58;82.53
46682;BME280;34101;53.430;-2.224;2022-09-02T06:13:40;156848.36;;;17.58;82.71
46682;BME280;34101;53.430;-2.224;2022-09-02T06:16:08;156867.60;;;17.66;82.69
46682;BME280;34101;53.430;-2.224;2022-09-02T06:18:38;156886.11;;;17.73;82.48
46682;BME280;34101;53.430;-2.224;2022-09-02T06:21:06;156894.96;;;17.77;82.34
46682;BME280;34101;53.430;-2.224;2022-09-02T06:23:35;156911.36;;;17.83;82.23
46682;BME280;34101;53.430;-2.224;2022-09-02T06:26:03;156920.86;;;17.87;82.41
46682;BME280;34101;53.430;-2.224;2022-09-02T06:28:30;156928.89;;;17.90;82.35
46682;BME280;34101;53.430;-2.224;2022-09-02T06:30:58;156941.07;;;17.95;82.67
46682;BME280;34101;53.430;-2.224;2022-09-02T06:33:25;156962.75;;;18.04;82.30
46682;BME280;34101;53.430;-2.224;2022-09-02T06:35:52;156961.45;;;18.03;82.67
46682;BME280;34101;53.430;-2.224;2022-09-02T06:38:19;156987.68;;;18.14;82.46
46682;BME280;34101;53.430;-2.224;2022-09-02T06:40:48;157001.32;;;18.19;82.27
46682;BME280;34101;53.430;-2.224;2022-09-02T06:43:17;157012.45;;;18.24;81.93
46682;BME280;34101;53.430;-2.224;2022-09-02T06:45:44;157026.17;;;18.29;82.23
46682;BME280;34101;53.430;-2.224;2022-09-02T06:48:13;157017.16;;;18.26;82.18
46682;BME280;34101;53.430;-2.224;2022-09-02T06:50:42;157009.28;;;18.22;82.46
46682;BME280;34101;53.430;-2.224;2022-09-02T06:53:10;157008.79;;;18.22;82.90
46682;BME280;34101;53.430;-2.224;2022-09-02T06:55:38;156990.12;;;18.15;83.62
46682;BME280;34101;53.430;-2.224;2022-09-02T06:58:07;157006.19;;;18.21;83.90
46682;BME280;34101;53.430;-2.224;2022-09-02T07:00:35;157006.92;;;18.21;83.94
46682;BME280;34101;53.430;-2.224;2022-09-02T07:03:04;157000.75;;;18.19;83.40
46682;BME280;34101;53.430;-2.224;2022-09-02T07:05:31;157042.90;;;18.36;83.51
46682;BME280;34101;53.430;-2.224;2022-09-02T07:07:59;157067.59;;;18.46;83.63
46682;BME280;34101;53.430;-2.224;2022-09-02T07:10:27;157097.56;;;18.58;82.40
46682;BME280;34101;53.430;-2.224;2022-09-02T07:12:54;157123.31;;;18.68;82.33
46682;BME280;34101;53.430;-2.224;2022-09-02T07:15:21;157167.74;;;18.86;82.16
46682;BME280;34101;53.430;-2.224;2022-09-02T07:17:49;157210.71;;;19.03;80.56
46682;BME280;34101;53.430;-2.224;2022-09-02T07:20:16;157236.87;;;19.14;79.30
46682;BME280;34101;53.430;-2.224;2022-09-02T07:22:43;157269.21;;;19.27;78.77
46682;BME280;34101;53.430;-2.224;2022-09-02T07:25:10;157294.97;;;19.37;78.25
46682;BME280;34101;53.430;-2.224;2022-09-02T07:27:37;157329.50;;;19.51;76.98
46682;BME280;34101;53.430;-2.224;2022-09-02T07:30:06;157332.67;;;19.52;76.65
46682;BME280;34101;53.430;-2.224;2022-09-02T07:32:33;157353.96;;;19.61;76.44
46682;BME280;34101;53.430;-2.224;2022-09-02T07:35:01;157353.80;;;19.61;75.45
46682;BME280;34101;53.430;-2.224;2022-09-02T07:37:28;157328.85;;;19.51;76.46
46682;BME280;34101;53.430;-2.224;2022-09-02T07:39:56;157355.10;;;19.61;76.19
46682;BME280;34101;53.430;-2.224;2022-09-02T07:42:24;157384.52;;;19.73;75.33
46682;BME280;34101;53.430;-2.224;2022-09-02T07:44:51;157400.86;;;19.79;75.26
46682;BME280;34101;53.430;-2.224;2022-09-02T07:47:18;157420.36;;;19.87;74.62
46682;BME280;34101;53.430;-2.224;2022-09-02T07:49:45;157417.60;;;19.86;74.84
46682;BME280;34101;53.430;-2.224;2022-09-02T07:52:13;157443.53;;;19.96;74.50
46682;BME280;34101;53.430;-2.224;2022-09-02T07:54:40;157447.10;;;19.98;74.70
46682;BME280;34101;53.430;-2.224;2022-09-02T07:57:07;157463.85;;;20.05;74.00
46682;BME280;34101;53.430;-2.224;2022-09-02T07:59:34;157493.27;;;20.16;74.20
46682;BME280;34101;53.430;-2.224;2022-09-02T08:02:02;157523.51;;;20.29;73.23
46682;BME280;34101;53.430;-2.224;2022-09-02T08:04:29;157561.80;;;20.44;72.08
46682;BME280;34101;53.430;-2.224;2022-09-02T08:06:57;157607.58;;;20.62;71.69
46682;BME280;34101;53.430;-2.224;2022-09-02T08:09:25;157651.24;;;20.80;70.77
46682;BME280;34101;53.430;-2.224;2022-09-02T08:11:52;157691.98;;;20.96;70.03
46682;BME280;34101;53.430;-2.224;2022-09-02T08:14:23;157736.55;;;21.14;68.76
46682;BME280;34101;53.430;-2.224;2022-09-02T08:16:50;157759.41;;;21.23;68.13
46682;BME280;34101;53.430;-2.224;2022-09-02T08:19:18;157807.88;;;21.42;67.72
46682;BME280;34101;53.430;-2.224;2022-09-02T08:21:45;157864.99;;;21.65;66.57
46682;BME280;34101;53.430;-2.224;2022-09-02T08:24:12;157927.88;;;21.90;65.70
46682;BME280;34101;53.430;-2.224;2022-09-02T08:26:40;157982.47;;;22.12;64.58
46682;BME280;34101;53.430;-2.224;2022-09-02T08:29:08;158073.21;;;22.49;62.91
46682;BME280;34101;53.430;-2.224;2022-09-02T08:31:36;158243.41;;;23.17;59.46
46682;BME280;34101;53.430;-2.224;2022-09-02T08:34:04;158383.79;;;23.73;58.39
46682;BME280;34101;53.430;-2.224;2022-09-02T08:36:31;158462.70;;;24.04;56.76
46682;BME280;34101;53.430;-2.224;2022-09-02T08:39:02;158608.76;;;24.63;55.51
46682;BME280;34101;53.430;-2.224;2022-09-02T08:41:32;158732.44;;;25.12;53.76
46682;BME280;34101;53.430;-2.224;2022-09-02T08:44:04;158736.76;;;25.14;53.09
46682;BME280;34101;53.430;-2.224;2022-09-02T08:46:33;158740.84;;;25.16;52.84
46682;BME280;34101;53.430;-2.224;2022-09-02T08:49:03;158803.26;;;25.41;52.13
46682;BME280;34101;53.430;-2.224;2022-09-02T08:51:35;158941.42;;;25.96;50.58
46682;BME280;34101;53.430;-2.224;2022-09-02T08:54:07;159093.07;;;26.56;48.99
46682;BME280;34101;53.430;-2.224;2022-09-02T08:56:35;159214.58;;;27.05;47.74
46682;BME280;34101;53.430;-2.224;2022-09-02T08:59:03;159097.39;;;26.58;48.12
46682;BME280;34101;53.430;-2.224;2022-09-02T09:01:39;159066.08;;;26.46;48.03
46682;BME280;34101;53.430;-2.224;2022-09-02T09:04:17;159121.44;;;26.68;47.88
46682;BME280;34101;53.430;-2.224;2022-09-02T09:06:58;159122.91;;;26.68;47.48
46682;BME280;34101;53.430;-2.224;2022-09-02T09:09:34;158942.15;;;25.96;48.54
46682;BME280;34101;53.430;-2.224;2022-09-02T09:12:11;158884.28;;;25.73;49.10
46682;BME280;34101;53.430;-2.224;2022-09-02T09:14:46;158820.78;;;25.48;49.14
46682;BME280;34101;53.430;-2.224;2022-09-02T09:17:20;158689.58;;;24.95;50.13
46682;BME280;34101;53.430;-2.224;2022-09-02T09:19:52;158667.01;;;24.86;49.53
46682;BME280;34101;53.430;-2.224;2022-09-02T09:22:23;158705.55;;;25.02;50.05
46682;BME280;34101;53.430;-2.224;2022-09-02T09:24:52;159030.93;;;26.32;47.67
46682;BME280;34101;53.430;-2.224;2022-09-02T09:27:21;159063.22;;;26.44;47.61
46682;BME280;34101;53.430;-2.224;2022-09-02T09:29:49;159139.55;;;26.75;46.36
46682;BME280;34101;53.430;-2.224;2022-09-02T09:32:24;159311.48;;;27.44;45.07
46682;BME280;34101;53.430;-2.224;2022-09-02T09:35:01;159368.42;;;27.66;43.96
46682;BME280;34101;53.430;-2.224;2022-09-02T09:37:33;159396.07;;;27.77;43.48
46682;BME280;34101;53.430;-2.224;2022-09-02T09:40:21;159587.01;;;28.54;42.56
46682;BME280;34101;53.430;-2.224;2022-09-02T09:42:53;159760.30;;;29.23;40.69
46682;BME280;34101;53.430;-2.224;2022-09-02T09:45:26;159819.65;;;29.46;40.08
46682;BME280;34101;53.430;-2.224;2022-09-02T09:48:26;159895.01;;;29.76;38.78
46682;BME280;34101;53.430;-2.224;2022-09-02T09:51:12;159889.54;;;29.74;37.82
46682;BME280;34101;53.430;-2.224;2022-09-02T09:53:40;159757.61;;;29.22;39.34
46682;BME280;34101;53.430;-2.224;2022-09-02T09:56:23;159667.65;;;28.86;39.99
46682;BME280;34101;53.430;-2.224;2022-09-02T09:58:51;159569.88;;;28.47;40.49
46682;BME280;34101;53.430;-2.224;2022-09-02T10:01:22;159453.92;;;28.00;40.19
46682;BME280;34101;53.430;-2.224;2022-09-02T10:03:51;159234.72;;;27.13;41.93
46682;BME280;34101;53.430;-2.224;2022-09-02T10:06:21;158995.71;;;26.17;43.22
46682;BME280;34101;53.430;-2.224;2022-09-02T10:08:53;158974.19;;;26.09;43.46
46682;BME280;34101;53.430;-2.224;2022-09-02T10:11:23;158967.99;;;26.06;43.66
46682;BME280;34101;53.430;-2.224;2022-09-02T10:13:53;159098.45;;;26.59;42.46
46682;BME280;34101;53.430;-2.224;2022-09-02T10:16:36;159172.49;;;26.88;41.87
46682;BME280;34101;53.430;-2.224;2022-09-02T10:19:14;159394.44;;;27.77;40.20
46682;BME280;34101;53.430;-2.224;2022-09-02T10:21:57;159494.96;;;28.17;39.16
46682;BME280;34101;53.430;-2.224;2022-09-02T10:24:41;159293.69;;;27.36;40.69
46682;BME280;34101;53.430;-2.224;2022-09-02T10:27:15;159312.29;;;27.44;40.43
46682;BME280;34101;53.430;-2.224;2022-09-02T10:29:53;159366.95;;;27.66;39.99
46682;BME280;34101;53.430;-2.224;2022-09-02T10:32:38;159456.04;;;28.01;39.42
46682;BME280;34101;53.430;-2.224;2022-09-02T10:35:11;159353.41;;;27.60;40.13
46682;BME280;34101;53.430;-2.224;2022-09-02T10:38:03;159589.14;;;28.54;38.53
46682;BME280;34101;53.430;-2.224;2022-09-02T10:40:37;159658.10;;;28.82;37.48
46682;BME280;34101;53.430;-2.224;2022-09-02T10:43:07;159596.97;;;28.58;37.33
46682;BME280;34101;53.430;-2.224;2022-09-02T10:45:42;159703.89;;;29.00;36.76
46682;BME280;34101;53.430;-2.224;2022-09-02T10:48:23;159759.08;;;29.22;35.92
46682;BME280;34101;53.430;-2.224;2022-09-02T10:51:00;159858.68;;;29.62;35.17
46682;BME280;34101;53.430;-2.224;2022-09-02T10:53:42;159937.23;;;29.93;34.50
46682;BME280;34101;53.430;-2.224;2022-09-02T10:56:15;160072.72;;;30.47;33.69
46682;BME280;34101;53.430;-2.224;2022-09-02T10:58:48;160006.24;;;30.21;33.14
46682;BME280;34101;53.430;-2.224;2022-09-02T11:01:21;160009.34;;;30.22;32.70
46682;BME280;34101;53.430;-2.224;2022-09-02T11:03:59;159988.02;;;30.14;32.16
46682;BME280;34101;53.430;-2.224;2022-09-02T11:06:30;159935.11;;;29.92;32.92
46682;BME280;34101;53.430;-2.224;2022-09-02T11:09:01;160010.16;;;30.22;32.33
46682;BME280;34101;53.430;-2.224;2022-09-02T11:11:31;160060.63;;;30.43;32.33
46682;BME280;34101;53.430;-2.224;2022-09-02T11:14:13;160016.77;;;30.25;32.13
46682;BME280;34101;53.430;-2.224;2022-09-02T11:16:47;159836.96;;;29.53;33.15
46682;BME280;34101;53.430;-2.224;2022-09-02T11:19:21;159700.30;;;28.99;34.01
46682;BME280;34101;53.430;-2.224;2022-09-02T11:21:56;159770.83;;;29.27;33.92
46682;BME280;34101;53.430;-2.224;2022-09-02T11:24:30;159750.99;;;29.19;33.40
46682;BME280;34101;53.430;-2.224;2022-09-02T11:27:04;159687.65;;;28.94;33.95
46682;BME280;34101;53.430;-2.224;2022-09-02T11:29:39;159638.10;;;28.74;34.07
46682;BME280;34101;53.430;-2.224;2022-09-02T11:32:16;159719.81;;;29.07;33.75
46682;BME280;34101;53.430;-2.224;2022-09-02T11:34:47;159772.55;;;29.28;33.08
46682;BME280;34101;53.430;-2.224;2022-09-02T11:37:29;159785.77;;;29.33;32.94
46682;BME280;34101;53.430;-2.224;2022-09-02T11:40:02;159709.20;;;29.02;33.39
46682;BME280;34101;53.430;-2.224;2022-09-02T11:42:41;159652.47;;;28.80;33.67
46682;BME280;34101;53.430;-2.224;2022-09-02T11:45:25;159420.22;;;27.87;35.80
46682;BME280;34101;53.430;-2.224;2022-09-02T11:48:06;159338.64;;;27.54;36.34
46682;BME280;34101;53.430;-2.224;2022-09-02T11:50:53;159285.29;;;27.33;36.30
46682;BME280;34101;53.430;-2.224;2022-09-02T11:53:25;159149.09;;;26.79;37.04
46682;BME280;34101;53.430;-2.224;2022-09-02T11:55:57;159172.82;;;26.88;37.14
46682;BME280;34101;53.430;-2.224;2022-09-02T11:58:31;159255.93;;;27.21;37.13
46682;BME280;34101;53.430;-2.224;2022-09-02T12:01:14;159430.67;;;27.91;36.06
46682;BME280;34101;53.430;-2.224;2022-09-02T12:03:43;159508.18;;;28.22;34.76
46682;BME280;34101;53.430;-2.224;2022-09-02T12:06:13;159507.61;;;28.22;34.81
46682;BME280;34101;53.430;-2.224;2022-09-02T12:09:41;159478.81;;;28.10;34.41
46682;BME280;34101;53.430;-2.224;2022-09-02T12:12:09;159450.25;;;27.99;33.91
46682;BME280;34101;53.430;-2.224;2022-09-02T12:15:27;159231.13;;;27.12;35.44
46682;BME280;34101;53.430;-2.224;2022-09-02T12:18:12;159154.88;;;26.81;35.57
46682;BME280;34101;53.430;-2.224;2022-09-02T12:21:07;159022.37;;;26.28;35.71
46682;BME280;34101;53.430;-2.224;2022-09-02T12:24:10;158988.70;;;26.15;36.30
46682;BME280;34101;53.430;-2.224;2022-09-02T12:27:43;158991.56;;;26.16;36.39
46682;BME280;34101;53.430;-2.224;2022-09-02T12:30:11;158980.63;;;26.11;36.49
46682;BME280;34101;53.430;-2.224;2022-09-02T12:33:10;158954.79;;;26.01;37.19
46682;BME280;34101;53.430;-2.224;2022-09-02T12:35:54;159008.51;;;26.23;36.98
46682;BME280;34101;53.430;-2.224;2022-09-02T12:38:24;158970.28;;;26.07;37.14
46682;BME280;34101;53.430;-2.224;2022-09-02T12:40:58;158941.26;;;25.96;36.64
46682;BME280;34101;53.430;-2.224;2022-09-02T12:43:30;158942.89;;;25.96;37.08
46682;BME280;34101;53.430;-2.224;2022-09-02T12:46:09;158888.92;;;25.75;37.90
46682;BME280;34101;53.430;-2.224;2022-09-02T12:48:44;158868.95;;;25.67;37.77
46682;BME280;34101;53.430;-2.224;2022-09-02T12:51:51;158891.78;;;25.76;38.37
46682;BME280;34101;53.430;-2.224;2022-09-02T12:54:24;158906.53;;;25.82;38.05
46682;BME280;34101;53.430;-2.224;2022-09-02T12:56:55;158936.53;;;25.94;38.02
46682;BME280;34101;53.430;-2.224;2022-09-02T12:59:27;159010.06;;;26.23;37.57